Hallettsville, Texas
Current Conditions -  °F | °C
As of 4:55 PM on Saturday 25 Oct 2014 (Local Time) from K66R Reporting Station
Clear Clear  
Wind Chill: 85°   Ceiling: Unl
Heat Index: 85°   Visibility: 10mi
Dew Point: 61°   Wind: 3mph
Humidity: 45%   Direction: 130°SE
Pressure: 30.08"   Gusts: NA
Location:  29.44°N, 96.94°W
Report Text: K66R 252155Z AUTO 13003KT 10SM CLR 30/16 A3008 RMK AO2 T02950163
Loading
Personal Weather Stations






























Interactive Weather Map New forecast layout! Learn more

10-Day Weather Forecast

Advertisements
Track Severe Weather on mobile